Time;durP1;ratioP1;P1;durP2;ratioP2;P2;SDS_P1;SDS_P2;PMS_P1;PMS_P2;Temp;Humidity;BMP_temperature;BMP_pressure;BME280_temperature;BME280_humidity;BME280_pressure;Samples;Min_cycle;Max_cycle;Signal;HPM_P1;HPM_P2
2022/01/05 00:00:38;;;;;;;2.83;1.20;;;;;;;;;;4962790;28;20132;-64
2022/01/05 00:03:05;;;;;;;1.83;1.17;;;;;;;;;;4963707;28;20177;-63
2022/01/05 00:05:32;;;;;;;2.55;1.17;;;;;;;;;;4958509;28;20086;-63
2022/01/05 00:08:00;;;;;;;1.23;0.80;;;;;;;;;;4961197;28;20068;-64
2022/01/05 00:10:27;;;;;;;2.65;1.00;;;;;;;;;;4961672;28;20117;-63
2022/01/05 00:12:54;;;;;;;2.08;0.90;;;;;;;;;;4961365;28;20495;-63
2022/01/05 00:15:21;;;;;;;1.63;0.88;;;;;;;;;;4958936;28;20148;-63
2022/01/05 00:17:47;;;;;;;1.60;0.85;;;;;;;;;;4960801;28;20117;-63
2022/01/05 00:20:14;;;;;;;1.00;0.77;;;;;;;;;;4957892;28;20125;-63
2022/01/05 00:22:41;;;;;;;2.28;1.02;;;;;;;;;;4959374;28;20053;-63
2022/01/05 00:25:10;;;;;;;1.17;0.70;;;;;;;;;;4958266;28;20139;-63
2022/01/05 00:27:36;;;;;;;1.65;0.80;;;;;;;;;;4958077;28;20062;-63
2022/01/05 00:30:04;;;;;;;1.88;1.10;;;;;;;;;;4961138;28;20145;-64
2022/01/05 00:32:31;;;;;;;2.35;1.38;;;;;;;;;;4959091;28;20825;-63
2022/01/05 00:34:57;;;;;;;2.17;1.10;;;;;;;;;;4959799;28;20046;-63
2022/01/05 00:37:24;;;;;;;2.70;1.30;;;;;;;;;;4957750;28;20695;-63
2022/01/05 00:39:51;;;;;;;1.30;0.88;;;;;;;;;;4962027;28;20050;-63
2022/01/05 00:42:19;;;;;;;2.35;1.20;;;;;;;;;;4960742;28;20509;-62
2022/01/05 00:44:46;;;;;;;1.80;1.20;;;;;;;;;;4961965;28;20047;-63
2022/01/05 00:47:12;;;;;;;2.58;1.30;;;;;;;;;;4957738;28;20050;-63
2022/01/05 00:49:39;;;;;;;2.35;1.30;;;;;;;;;;4964810;28;20086;-63
2022/01/05 00:52:06;;;;;;;2.75;1.35;;;;;;;;;;4959078;28;20129;-63
2022/01/05 00:54:33;;;;;;;3.25;1.60;;;;;;;;;;4942532;28;20070;-63
2022/01/05 00:56:59;;;;;;;2.20;1.30;;;;;;;;;;4959001;28;20490;-63
2022/01/05 00:59:27;;;;;;;3.50;1.80;;;;;;;;;;4962125;28;20142;-63
2022/01/05 01:01:54;;;;;;;2.72;1.45;;;;;;;;;;4961461;28;20149;-63
2022/01/05 01:04:21;;;;;;;2.47;1.50;;;;;;;;;;4958846;28;20545;-63
2022/01/05 01:06:47;;;;;;;3.25;1.50;;;;;;;;;;4959138;28;20097;-63
2022/01/05 01:09:14;;;;;;;2.35;1.40;;;;;;;;;;4964211;28;20078;-62
2022/01/05 01:11:41;;;;;;;3.30;1.90;;;;;;;;;;4962968;28;20129;-62
2022/01/05 01:14:07;;;;;;;2.33;1.42;;;;;;;;;;4960194;28;20137;-62
2022/01/05 01:16:35;;;;;;;2.35;1.20;;;;;;;;;;4962197;28;20066;-63
2022/01/05 01:19:02;;;;;;;2.40;1.02;;;;;;;;;;4962048;28;20081;-63
2022/01/05 01:21:29;;;;;;;3.05;1.45;;;;;;;;;;4964875;28;20495;-62
2022/01/05 01:23:56;;;;;;;2.58;1.25;;;;;;;;;;4959883;28;20070;-62
2022/01/05 01:26:24;;;;;;;2.55;1.20;;;;;;;;;;4965916;28;20069;-63
2022/01/05 01:28:50;;;;;;;1.70;0.73;;;;;;;;;;4961726;28;20511;-63
2022/01/05 01:31:17;;;;;;;1.10;0.80;;;;;;;;;;4961670;28;20083;-62
2022/01/05 01:33:45;;;;;;;2.10;1.00;;;;;;;;;;4964312;28;20074;-62
2022/01/05 01:36:12;;;;;;;1.50;0.90;;;;;;;;;;4961121;28;20121;-62
2022/01/05 01:38:38;;;;;;;2.05;0.82;;;;;;;;;;4960796;28;20067;-62
2022/01/05 01:41:05;;;;;;;1.77;1.13;;;;;;;;;;4963685;28;20089;-62
2022/01/05 01:43:31;;;;;;;1.23;0.80;;;;;;;;;;4964394;28;20082;-63
2022/01/05 01:45:58;;;;;;;1.95;0.90;;;;;;;;;;4966337;28;20066;-63
2022/01/05 01:48:25;;;;;;;1.65;0.88;;;;;;;;;;4963774;28;20070;-62
2022/01/05 01:50:53;;;;;;;1.33;0.60;;;;;;;;;;4965943;28;20074;-63
2022/01/05 01:53:19;;;;;;;1.00;0.60;;;;;;;;;;4967208;28;20047;-62
2022/01/05 01:55:47;;;;;;;1.52;0.68;;;;;;;;;;4962587;28;20074;-62
2022/01/05 01:58:14;;;;;;;0.82;0.60;;;;;;;;;;4962226;28;20070;-62
2022/01/05 02:00:41;;;;;;;1.02;0.60;;;;;;;;;;4965674;28;20206;-63
2022/01/05 02:03:07;;;;;;;1.13;0.68;;;;;;;;;;4964713;28;20070;-62
2022/01/05 02:05:34;;;;;;;0.88;0.40;;;;;;;;;;4964224;28;20101;-63
2022/01/05 02:08:05;;;;;;;0.47;0.40;;;;;;;;;;4964938;28;20066;-62
2022/01/05 02:10:32;;;;;;;0.55;0.20;;;;;;;;;;4964747;28;20078;-63
2022/01/05 02:12:59;;;;;;;1.00;0.38;;;;;;;;;;4965861;28;20113;-62
2022/01/05 02:15:25;;;;;;;0.57;0.22;;;;;;;;;;4960430;28;20043;-61
2022/01/05 02:18:10;;;;;;;0.40;0.30;;;;;;;;;;4968266;28;20050;-63
2022/01/05 02:20:36;;;;;;;0.80;0.30;;;;;;;;;;4951919;28;20055;-62
2022/01/05 02:23:05;;;;;;;0.82;0.32;;;;;;;;;;4965179;28;20070;-60
2022/01/05 02:25:32;;;;;;;0.38;0.15;;;;;;;;;;4960694;28;20055;-63
2022/01/05 02:27:58;;;;;;;0.70;0.22;;;;;;;;;;4965973;28;20035;-63
2022/01/05 02:30:28;;;;;;;0.38;0.20;;;;;;;;;;4960126;28;20437;-62
2022/01/05 02:32:55;;;;;;;0.32;0.20;;;;;;;;;;4964717;28;20121;-62
2022/01/05 02:35:22;;;;;;;1.67;0.43;;;;;;;;;;4962050;28;20062;-62
2022/01/05 02:37:50;;;;;;;0.47;0.28;;;;;;;;;;4967931;28;20070;-63
2022/01/05 02:40:20;;;;;;;0.17;0.17;;;;;;;;;;4935882;28;20062;-63
2022/01/05 02:42:47;;;;;;;1.35;0.10;;;;;;;;;;4967675;28;20074;-63
2022/01/05 02:45:15;;;;;;;0.15;0.10;;;;;;;;;;4965417;28;20078;-63
2022/01/05 02:47:42;;;;;;;0.32;0.20;;;;;;;;;;4961511;28;20156;-62
2022/01/05 02:50:11;;;;;;;0.30;0.10;;;;;;;;;;4958935;28;20570;-63
2022/01/05 02:52:37;;;;;;;0.77;0.32;;;;;;;;;;4963164;28;20204;-63
2022/01/05 02:55:05;;;;;;;0.10;0.10;;;;;;;;;;4960457;28;20724;-63
2022/01/05 02:57:33;;;;;;;0.85;0.22;;;;;;;;;;4960069;28;20126;-62
2022/01/05 03:00:00;;;;;;;0.77;0.10;;;;;;;;;;4961909;28;20153;-62
2022/01/05 03:02:27;;;;;;;0.68;0.28;;;;;;;;;;4967475;28;20077;-62
2022/01/05 03:04:53;;;;;;;0.50;0.10;;;;;;;;;;4964347;28;20047;-62
2022/01/05 03:07:20;;;;;;;0.30;0.10;;;;;;;;;;4963358;28;20082;-62
2022/01/05 03:09:46;;;;;;;0.00;0.00;;;;;;;;;;4964659;28;20467;-62
2022/01/05 03:12:13;;;;;;;0.68;0.20;;;;;;;;;;4968288;28;20070;-62
2022/01/05 03:14:41;;;;;;;0.15;0.10;;;;;;;;;;4968324;28;20047;-63
2022/01/05 03:17:08;;;;;;;0.20;0.10;;;;;;;;;;4964764;28;20097;-62
2022/01/05 03:19:34;;;;;;;0.00;0.00;;;;;;;;;;4965804;28;20145;-62
2022/01/05 03:22:01;;;;;;;0.45;0.10;;;;;;;;;;4962060;28;20157;-63
2022/01/05 03:24:27;;;;;;;0.20;0.10;;;;;;;;;;4968448;28;21737;-62
2022/01/05 03:26:54;;;;;;;0.22;0.10;;;;;;;;;;4971103;28;20101;-62
2022/01/05 03:29:20;;;;;;;0.08;0.00;;;;;;;;;;4966854;28;20566;-63
2022/01/05 03:31:48;;;;;;;0.00;0.00;;;;;;;;;;4964360;28;20133;-63
2022/01/05 03:34:18;;;;;;;0.00;0.00;;;;;;;;;;4965784;28;20071;-63
2022/01/05 03:36:45;;;;;;;0.10;0.00;;;;;;;;;;4964620;28;20072;-63
2022/01/05 03:39:12;;;;;;;0.10;0.10;;;;;;;;;;4964256;28;20110;-62
2022/01/05 03:41:38;;;;;;;0.20;0.10;;;;;;;;;;4963315;28;20082;-63
2022/01/05 03:44:06;;;;;;;0.10;0.00;;;;;;;;;;4963205;28;20039;-62
2022/01/05 03:46:33;;;;;;;0.93;0.10;;;;;;;;;;4964628;28;20491;-62
2022/01/05 03:49:01;;;;;;;0.10;0.10;;;;;;;;;;4963092;28;20074;-63
2022/01/05 03:51:28;;;;;;;0.10;0.00;;;;;;;;;;4965790;28;20146;-62
2022/01/05 03:53:54;;;;;;;1.00;0.20;;;;;;;;;;4967123;28;20093;-63
2022/01/05 03:56:21;;;;;;;0.85;0.50;;;;;;;;;;4963543;28;20082;-63
2022/01/05 03:58:47;;;;;;;0.10;0.10;;;;;;;;;;4967846;28;20101;-62
2022/01/05 04:01:14;;;;;;;0.20;0.10;;;;;;;;;;4967045;28;20051;-63
2022/01/05 04:03:41;;;;;;;0.75;0.15;;;;;;;;;;4964530;28;20964;-63
2022/01/05 04:06:09;;;;;;;0.03;0.03;;;;;;;;;;4959567;28;20136;-63
2022/01/05 04:08:35;;;;;;;0.05;0.05;;;;;;;;;;4962663;28;20117;-63
2022/01/05 04:11:02;;;;;;;0.00;0.00;;;;;;;;;;4968286;28;20133;-63
2022/01/05 04:13:28;;;;;;;1.02;0.10;;;;;;;;;;4944154;29;20075;-63
2022/01/05 04:15:55;;;;;;;0.47;0.30;;;;;;;;;;4964463;28;20074;-63
2022/01/05 04:18:21;;;;;;;0.30;0.17;;;;;;;;;;4965198;28;20074;-62
2022/01/05 04:20:48;;;;;;;0.57;0.20;;;;;;;;;;4943808;28;20122;-63
2022/01/05 04:23:16;;;;;;;0.17;0.17;;;;;;;;;;4959678;28;20141;-62
2022/01/05 04:25:42;;;;;;;0.40;0.15;;;;;;;;;;4963356;28;20870;-62
2022/01/05 04:28:09;;;;;;;0.10;0.10;;;;;;;;;;4959852;28;20034;-62
2022/01/05 04:30:36;;;;;;;0.15;0.08;;;;;;;;;;4955578;28;20180;-63
2022/01/05 04:33:02;;;;;;;0.10;0.00;;;;;;;;;;4966433;28;20123;-63
2022/01/05 04:35:29;;;;;;;0.30;0.20;;;;;;;;;;4962236;28;21183;-62
2022/01/05 04:37:55;;;;;;;0.13;0.10;;;;;;;;;;4962341;28;20129;-63
2022/01/05 04:40:23;;;;;;;0.20;0.20;;;;;;;;;;4964280;28;20067;-63
2022/01/05 04:42:50;;;;;;;0.40;0.15;;;;;;;;;;4966283;28;20467;-62
2022/01/05 04:45:17;;;;;;;0.10;0.10;;;;;;;;;;4964122;28;20075;-63
2022/01/05 04:47:44;;;;;;;0.17;0.10;;;;;;;;;;4967902;28;20046;-63
2022/01/05 04:50:14;;;;;;;0.00;0.00;;;;;;;;;;4963517;28;20043;-63
2022/01/05 04:52:41;;;;;;;1.45;0.10;;;;;;;;;;4963367;28;20047;-62
2022/01/05 04:55:08;;;;;;;0.10;0.10;;;;;;;;;;4962488;28;20093;-63
2022/01/05 04:57:36;;;;;;;0.15;0.10;;;;;;;;;;4963510;28;20077;-63
2022/01/05 05:00:05;;;;;;;0.00;0.00;;;;;;;;;;4960160;28;20074;-63
2022/01/05 05:02:32;;;;;;;0.20;0.10;;;;;;;;;;4965010;28;20055;-62
2022/01/05 05:04:58;;;;;;;0.05;0.00;;;;;;;;;;4959776;28;20141;-63
2022/01/05 05:07:25;;;;;;;0.00;0.00;;;;;;;;;;4958687;28;20048;-62
2022/01/05 05:09:51;;;;;;;0.10;0.10;;;;;;;;;;4966827;28;20442;-63
2022/01/05 05:12:18;;;;;;;0.25;0.10;;;;;;;;;;4964995;28;20121;-62
2022/01/05 05:14:46;;;;;;;0.00;0.00;;;;;;;;;;4963020;28;20074;-63
2022/01/05 05:17:12;;;;;;;0.20;0.10;;;;;;;;;;4963558;28;20081;-63
2022/01/05 05:19:39;;;;;;;1.40;0.10;;;;;;;;;;4961214;28;20495;-63
2022/01/05 05:22:05;;;;;;;0.45;0.20;;;;;;;;;;4959578;28;20077;-63
2022/01/05 05:24:32;;;;;;;0.25;0.20;;;;;;;;;;4964631;28;20150;-63
2022/01/05 05:26:58;;;;;;;0.25;0.25;;;;;;;;;;4964812;28;20129;-63
2022/01/05 05:29:25;;;;;;;0.30;0.30;;;;;;;;;;4962998;28;20063;-63
2022/01/05 05:31:53;;;;;;;1.60;0.30;;;;;;;;;;4960168;28;20144;-62
2022/01/05 05:34:19;;;;;;;0.22;0.22;;;;;;;;;;4958154;28;20094;-63
2022/01/05 05:36:46;;;;;;;0.52;0.32;;;;;;;;;;4963945;28;20464;-63
2022/01/05 05:39:13;;;;;;;0.40;0.30;;;;;;;;;;4961357;28;20757;-63
2022/01/05 05:41:40;;;;;;;0.28;0.10;;;;;;;;;;4963384;28;20134;-63
2022/01/05 05:44:06;;;;;;;0.10;0.10;;;;;;;;;;4962041;28;20137;-63
2022/01/05 05:46:33;;;;;;;0.10;0.10;;;;;;;;;;4961107;28;20085;-62
2022/01/05 05:49:02;;;;;;;0.10;0.10;;;;;;;;;;4962516;28;20038;-62
2022/01/05 05:51:28;;;;;;;0.00;0.00;;;;;;;;;;4962901;28;20129;-63
2022/01/05 05:53:55;;;;;;;0.32;0.20;;;;;;;;;;4962940;28;20666;-62
2022/01/05 05:56:21;;;;;;;0.80;0.20;;;;;;;;;;4957307;28;20078;-63
2022/01/05 05:58:48;;;;;;;0.10;0.10;;;;;;;;;;4923433;28;1112904;-61
2022/01/05 06:01:14;;;;;;;0.22;0.15;;;;;;;;;;4961136;28;20502;-62
2022/01/05 06:03:41;;;;;;;0.13;0.10;;;;;;;;;;4958247;28;20160;-63
2022/01/05 06:06:09;;;;;;;0.30;0.10;;;;;;;;;;4962210;28;20356;-63
2022/01/05 06:08:35;;;;;;;0.10;0.10;;;;;;;;;;4969758;28;20125;-62
2022/01/05 06:11:02;;;;;;;0.30;0.22;;;;;;;;;;4964919;28;20051;-63
2022/01/05 06:13:29;;;;;;;0.20;0.13;;;;;;;;;;4959042;28;20090;-62
2022/01/05 06:15:55;;;;;;;0.52;0.20;;;;;;;;;;4965111;28;20428;-63
2022/01/05 06:18:22;;;;;;;0.63;0.28;;;;;;;;;;4967587;28;20569;-63
2022/01/05 06:20:48;;;;;;;0.75;0.30;;;;;;;;;;4947703;28;20047;-63
2022/01/05 06:23:16;;;;;;;0.60;0.55;;;;;;;;;;4960832;28;20141;-63
2022/01/05 06:25:43;;;;;;;0.55;0.40;;;;;;;;;;4969602;28;20039;-62
2022/01/05 06:28:11;;;;;;;1.98;0.60;;;;;;;;;;4964106;28;20085;-62
2022/01/05 06:30:38;;;;;;;0.88;0.43;;;;;;;;;;4967855;28;20053;-62
2022/01/05 06:33:05;;;;;;;0.55;0.40;;;;;;;;;;4967240;28;20075;-62
2022/01/05 06:35:31;;;;;;;0.45;0.28;;;;;;;;;;4966547;28;20101;-63
2022/01/05 06:37:58;;;;;;;0.35;0.30;;;;;;;;;;4962492;28;20121;-63
2022/01/05 06:40:26;;;;;;;0.73;0.30;;;;;;;;;;4961763;28;20077;-63
2022/01/05 06:42:53;;;;;;;0.47;0.20;;;;;;;;;;4963914;28;20443;-62
2022/01/05 06:45:20;;;;;;;0.82;0.50;;;;;;;;;;4969016;28;20054;-62
2022/01/05 06:47:46;;;;;;;0.70;0.30;;;;;;;;;;4965962;28;20078;-63
2022/01/05 06:50:13;;;;;;;2.95;1.15;;;;;;;;;;4960830;28;20134;-62
2022/01/05 06:52:43;;;;;;;1.48;0.55;;;;;;;;;;4965235;28;20066;-62
2022/01/05 06:55:11;;;;;;;1.88;0.70;;;;;;;;;;4966226;28;20070;-63
2022/01/05 06:57:40;;;;;;;1.30;0.52;;;;;;;;;;4965725;28;20075;-63
2022/01/05 07:00:09;;;;;;;0.95;0.43;;;;;;;;;;4966506;28;20047;-63
2022/01/05 07:02:35;;;;;;;0.32;0.32;;;;;;;;;;4967234;28;20136;-63
2022/01/05 07:05:02;;;;;;;0.80;0.50;;;;;;;;;;4963559;28;20120;-63
2022/01/05 07:07:29;;;;;;;0.80;0.40;;;;;;;;;;4966100;28;20550;-63
2022/01/05 07:09:55;;;;;;;0.60;0.40;;;;;;;;;;4963313;28;20082;-62
2022/01/05 07:12:22;;;;;;;1.40;0.57;;;;;;;;;;4961734;28;20067;-63
2022/01/05 07:14:49;;;;;;;1.90;0.90;;;;;;;;;;4965781;28;20141;-63
2022/01/05 07:17:16;;;;;;;1.25;0.65;;;;;;;;;;4966439;28;20109;-63
2022/01/05 07:19:43;;;;;;;1.17;0.52;;;;;;;;;;4966505;28;20077;-63
2022/01/05 07:22:09;;;;;;;1.23;0.40;;;;;;;;;;4967174;28;20070;-62
2022/01/05 07:24:36;;;;;;;0.95;0.50;;;;;;;;;;4963822;28;20086;-63
2022/01/05 07:27:03;;;;;;;0.52;0.40;;;;;;;;;;4964643;28;20439;-63
2022/01/05 07:29:29;;;;;;;0.30;0.30;;;;;;;;;;4962440;28;20081;-63
2022/01/05 07:31:57;;;;;;;1.05;0.32;;;;;;;;;;4964759;28;20082;-63
2022/01/05 07:34:24;;;;;;;0.73;0.50;;;;;;;;;;4961809;28;20118;-62
2022/01/05 07:36:50;;;;;;;0.65;0.40;;;;;;;;;;4962439;28;20150;-62
2022/01/05 07:39:17;;;;;;;0.30;0.20;;;;;;;;;;4957563;28;20075;-63
2022/01/05 07:41:43;;;;;;;1.00;0.50;;;;;;;;;;4960111;28;20189;-63
2022/01/05 07:44:10;;;;;;;1.50;0.70;;;;;;;;;;4957560;28;20130;-63
2022/01/05 07:46:36;;;;;;;2.13;0.93;;;;;;;;;;4962846;28;20142;-63
2022/01/05 07:49:06;;;;;;;1.08;0.50;;;;;;;;;;4965188;28;20157;-63
2022/01/05 07:51:33;;;;;;;2.03;0.90;;;;;;;;;;4964966;28;20101;-63
2022/01/05 07:53:59;;;;;;;4.35;1.10;;;;;;;;;;4963886;28;20130;-63
2022/01/05 07:56:26;;;;;;;2.63;1.02;;;;;;;;;;4962826;28;20074;-63
2022/01/05 07:58:53;;;;;;;1.17;0.60;;;;;;;;;;4962489;28;20090;-63
2022/01/05 08:01:19;;;;;;;1.58;0.70;;;;;;;;;;4965948;28;20101;-63
2022/01/05 08:03:46;;;;;;;1.00;0.40;;;;;;;;;;4966155;28;20514;-63
2022/01/05 08:06:14;;;;;;;2.00;0.75;;;;;;;;;;4965454;28;20389;-63
2022/01/05 08:08:42;;;;;;;0.80;0.65;;;;;;;;;;4964849;28;20371;-63
2022/01/05 08:11:08;;;;;;;1.15;0.70;;;;;;;;;;4963590;28;20407;-63
2022/01/05 08:13:35;;;;;;;2.08;0.80;;;;;;;;;;4964396;28;20138;-62
2022/01/05 08:16:02;;;;;;;2.00;0.88;;;;;;;;;;4964660;28;20074;-62
2022/01/05 08:18:28;;;;;;;1.67;1.05;;;;;;;;;;4964121;28;20428;-63
2022/01/05 08:20:55;;;;;;;1.90;1.55;;;;;;;;;;4965236;28;20142;-63
2022/01/05 08:23:24;;;;;;;2.33;0.90;;;;;;;;;;4963204;28;20050;-63
2022/01/05 08:25:52;;;;;;;1.50;1.00;;;;;;;;;;4963892;28;20507;-63
2022/01/05 08:28:19;;;;;;;1.85;1.10;;;;;;;;;;4960190;28;20078;-62
2022/01/05 08:30:46;;;;;;;1.83;0.90;;;;;;;;;;4960190;28;20089;-62
2022/01/05 08:33:14;;;;;;;2.10;1.33;;;;;;;;;;4956868;28;20040;-62
2022/01/05 08:35:41;;;;;;;3.72;1.30;;;;;;;;;;4963391;28;20071;-62
2022/01/05 08:38:08;;;;;;;2.05;1.38;;;;;;;;;;4961576;28;20043;-62
2022/01/05 08:40:37;;;;;;;2.95;1.77;;;;;;;;;;4961761;28;20078;-62
2022/01/05 08:43:05;;;;;;;3.42;1.45;;;;;;;;;;4957916;28;20480;-62
2022/01/05 08:45:32;;;;;;;3.25;2.50;;;;;;;;;;4960348;28;21933;-63
2022/01/05 08:47:59;;;;;;;3.45;1.88;;;;;;;;;;4954786;28;20043;-62
2022/01/05 08:50:28;;;;;;;3.05;2.35;;;;;;;;;;4965828;28;20058;-62
2022/01/05 08:52:56;;;;;;;2.88;2.00;;;;;;;;;;4956290;28;20129;-63
2022/01/05 08:55:24;;;;;;;4.90;2.28;;;;;;;;;;4963968;28;20394;-63
2022/01/05 08:57:52;;;;;;;3.38;2.30;;;;;;;;;;4964410;28;20403;-63
2022/01/05 09:00:19;;;;;;;4.75;2.20;;;;;;;;;;4959476;28;20110;-63
2022/01/05 09:02:46;;;;;;;4.65;2.22;;;;;;;;;;4963781;28;20089;-62
2022/01/05 09:05:13;;;;;;;4.35;2.80;;;;;;;;;;4962234;28;20098;-63
2022/01/05 09:07:40;;;;;;;3.40;2.20;;;;;;;;;;4964807;28;20042;-63
2022/01/05 09:10:07;;;;;;;5.68;2.10;;;;;;;;;;4962972;28;20130;-63
2022/01/05 09:12:34;;;;;;;5.53;2.17;;;;;;;;;;4961819;28;20050;-62
2022/01/05 09:15:03;;;;;;;4.32;2.60;;;;;;;;;;4961267;28;20090;-62
2022/01/05 09:17:30;;;;;;;3.90;2.05;;;;;;;;;;4960591;28;20070;-62
2022/01/05 09:19:57;;;;;;;3.58;1.83;;;;;;;;;;4960952;28;20087;-62
2022/01/05 09:22:23;;;;;;;4.47;2.38;;;;;;;;;;4960607;28;20479;-62
2022/01/05 09:24:51;;;;;;;4.38;2.15;;;;;;;;;;4958964;28;20071;-62
2022/01/05 09:27:17;;;;;;;3.25;2.20;;;;;;;;;;4956405;28;20071;-62
2022/01/05 09:29:44;;;;;;;6.15;2.20;;;;;;;;;;4963028;28;20113;-62
2022/01/05 09:32:12;;;;;;;3.22;1.77;;;;;;;;;;4961681;28;20070;-62
2022/01/05 09:34:41;;;;;;;3.60;1.63;;;;;;;;;;4961198;28;20127;-63
2022/01/05 09:37:13;;;;;;;3.63;2.30;;;;;;;;;;4960521;28;20069;-63
2022/01/05 09:42:24;;;;;;;4.22;2.22;;;;;;;;;;4960332;28;20053;-62
2022/01/05 09:44:53;;;;;;;5.07;2.17;;;;;;;;;;4962394;28;20387;-62
2022/01/05 09:47:32;;;;;;;3.75;1.98;;;;;;;;;;4959255;28;20447;-62
2022/01/05 09:50:03;;;;;;;5.25;2.17;;;;;;;;;;4961451;28;20074;-62
2022/01/05 09:52:31;;;;;;;3.25;1.90;;;;;;;;;;4958941;28;20111;-62
2022/01/05 09:54:58;;;;;;;4.90;1.70;;;;;;;;;;4940479;28;20085;-63
2022/01/05 09:57:25;;;;;;;4.85;1.77;;;;;;;;;;4954991;28;20111;-64
2022/01/05 09:59:52;;;;;;;3.25;2.08;;;;;;;;;;4958748;28;20079;-63
2022/01/05 10:02:20;;;;;;;3.30;2.00;;;;;;;;;;4961693;28;20074;-64
2022/01/05 10:04:48;;;;;;;3.25;1.50;;;;;;;;;;4963283;28;20050;-63
2022/01/05 10:07:15;;;;;;;2.13;1.25;;;;;;;;;;4961243;28;20070;-63
2022/01/05 10:09:43;;;;;;;3.90;1.50;;;;;;;;;;4963368;28;20848;-63
2022/01/05 10:12:11;;;;;;;2.70;1.10;;;;;;;;;;4963013;28;20458;-63
2022/01/05 10:14:40;;;;;;;4.20;1.42;;;;;;;;;;4968050;28;20137;-63
2022/01/05 10:17:08;;;;;;;1.48;0.88;;;;;;;;;;4970922;28;20097;-63
2022/01/05 10:19:35;;;;;;;2.03;0.90;;;;;;;;;;4947927;28;20565;-63
2022/01/05 10:22:04;;;;;;;2.55;1.67;;;;;;;;;;4967158;28;20043;-63
2022/01/05 10:24:43;;;;;;;4.20;1.30;;;;;;;;;;4967690;28;20100;-63
2022/01/05 10:27:09;;;;;;;1.85;1.02;;;;;;;;;;4979076;28;20096;-63
2022/01/05 10:29:36;;;;;;;6.22;1.23;;;;;;;;;;4970483;28;20077;-64
2022/01/05 10:32:07;;;;;;;2.30;1.20;;;;;;;;;;4967841;28;20062;-63
2022/01/05 10:34:36;;;;;;;3.30;1.55;;;;;;;;;;4969128;28;20082;-63
2022/01/05 10:37:14;;;;;;;5.82;1.40;;;;;;;;;;4963173;28;20121;-63
2022/01/05 10:39:43;;;;;;;3.58;1.58;;;;;;;;;;4970781;28;20392;-63
2022/01/05 10:42:11;;;;;;;5.50;1.27;;;;;;;;;;4963451;28;20255;-63
2022/01/05 10:44:38;;;;;;;2.88;1.45;;;;;;;;;;4971034;28;20109;-63
2022/01/05 10:47:06;;;;;;;3.67;1.08;;;;;;;;;;4959944;28;20568;-63
2022/01/05 10:49:34;;;;;;;4.95;1.35;;;;;;;;;;4959147;28;20066;-63
2022/01/05 10:52:03;;;;;;;4.45;1.50;;;;;;;;;;4962709;28;20454;-63
2022/01/05 10:54:32;;;;;;;3.25;1.42;;;;;;;;;;4969665;28;20074;-64
2022/01/05 10:57:08;;;;;;;4.53;1.60;;;;;;;;;;4970140;28;20118;-63
2022/01/05 10:59:39;;;;;;;3.60;1.75;;;;;;;;;;4973283;28;20059;-63
2022/01/05 11:02:25;;;;;;;4.80;1.63;;;;;;;;;;4965700;28;20055;-63
2022/01/05 11:04:52;;;;;;;5.05;1.63;;;;;;;;;;4970563;28;20459;-63
2022/01/05 11:07:23;;;;;;;3.97;2.03;;;;;;;;;;4972194;28;20141;-63
2022/01/05 11:09:55;;;;;;;5.35;1.60;;;;;;;;;;4967300;28;20137;-63
2022/01/05 11:12:31;;;;;;;5.90;1.55;;;;;;;;;;4968120;28;20150;-63
2022/01/05 11:15:17;;;;;;;3.38;1.75;;;;;;;;;;4978103;28;20073;-62
2022/01/05 11:18:05;;;;;;;2.42;1.52;;;;;;;;;;4981916;28;20139;-63
2022/01/05 11:20:32;;;;;;;3.88;1.80;;;;;;;;;;4971683;28;20082;-63
2022/01/05 11:22:58;;;;;;;3.95;1.50;;;;;;;;;;4973786;28;20070;-63
2022/01/05 11:25:27;;;;;;;5.75;1.88;;;;;;;;;;4968905;28;20129;-63
2022/01/05 11:27:53;;;;;;;4.07;1.60;;;;;;;;;;4965507;28;20109;-62
2022/01/05 11:30:20;;;;;;;5.50;1.50;;;;;;;;;;4967916;28;20180;-63
2022/01/05 11:32:47;;;;;;;5.57;1.33;;;;;;;;;;4960172;28;20499;-62
2022/01/05 11:35:14;;;;;;;4.38;1.20;;;;;;;;;;4967200;28;20082;-62
2022/01/05 11:37:40;;;;;;;8.30;1.70;;;;;;;;;;4972286;28;20083;-62
2022/01/05 11:40:08;;;;;;;2.72;1.10;;;;;;;;;;4982786;28;20109;-63
2022/01/05 11:42:37;;;;;;;2.13;0.77;;;;;;;;;;4952598;28;20454;-61
2022/01/05 11:45:06;;;;;;;3.72;1.17;;;;;;;;;;4968981;28;20090;-62
2022/01/05 11:47:36;;;;;;;2.08;1.00;;;;;;;;;;4967516;28;20035;-62
2022/01/05 11:50:25;;;;;;;3.17;1.15;;;;;;;;;;4972590;28;20113;-63
2022/01/05 11:52:56;;;;;;;3.53;1.10;;;;;;;;;;4971082;28;20530;-62
2022/01/05 11:55:23;;;;;;;3.05;0.80;;;;;;;;;;4972969;28;20148;-62
2022/01/05 11:58:16;;;;;;;2.50;1.00;;;;;;;;;;4975629;28;20169;-61
2022/01/05 12:00:43;;;;;;;2.85;1.25;;;;;;;;;;4971486;28;20066;-61
2022/01/05 12:03:10;;;;;;;3.72;1.30;;;;;;;;;;4979161;28;20042;-59
2022/01/05 12:06:03;;;;;;;6.07;1.73;;;;;;;;;;4970434;28;20058;-63
2022/01/05 12:08:43;;;;;;;2.50;1.13;;;;;;;;;;4970673;28;20129;-61
2022/01/05 12:11:27;;;;;;;3.10;1.00;;;;;;;;;;4970756;28;20102;-62
2022/01/05 12:13:56;;;;;;;4.35;1.30;;;;;;;;;;4974577;28;20120;-61
2022/01/05 12:16:23;;;;;;;2.67;1.40;;;;;;;;;;4973469;28;20148;-62
2022/01/05 12:19:04;;;;;;;2.30;1.10;;;;;;;;;;4970191;28;20054;-62
2022/01/05 12:21:44;;;;;;;2.65;1.33;;;;;;;;;;4966820;28;20448;-62
2022/01/05 12:24:11;;;;;;;2.15;1.25;;;;;;;;;;4966985;28;20129;-62
2022/01/05 12:26:38;;;;;;;3.47;1.23;;;;;;;;;;4971297;28;20136;-62
2022/01/05 12:29:06;;;;;;;3.08;1.48;;;;;;;;;;4977288;28;20073;-62
2022/01/05 12:32:01;;;;;;;4.38;1.30;;;;;;;;;;4967070;28;20140;-62
2022/01/05 12:34:54;;;;;;;1.90;1.15;;;;;;;;;;4967409;28;20122;-62
2022/01/05 12:37:42;;;;;;;3.53;1.35;;;;;;;;;;4968440;28;20513;-62
2022/01/05 12:40:30;;;;;;;7.25;1.42;;;;;;;;;;4969705;28;20101;-63
2022/01/05 12:43:35;;;;;;;10.88;2.22;;;;;;;;;;4972630;28;20418;-63
2022/01/05 12:46:13;;;;;;;5.00;1.10;;;;;;;;;;4963032;28;20055;-64
2022/01/05 12:49:00;;;;;;;4.40;1.55;;;;;;;;;;4967417;28;20058;-63
2022/01/05 12:51:44;;;;;;;5.57;1.08;;;;;;;;;;4969937;28;20046;-63
2022/01/05 12:54:15;;;;;;;3.50;1.25;;;;;;;;;;4968355;28;20098;-63
2022/01/05 12:56:46;;;;;;;5.72;1.27;;;;;;;;;;4970820;28;20057;-63
2022/01/05 12:59:17;;;;;;;2.92;1.10;;;;;;;;;;4974107;28;20077;-63
2022/01/05 13:01:45;;;;;;;4.20;1.00;;;;;;;;;;4980264;28;20066;-63
2022/01/05 13:04:14;;;;;;;2.30;0.80;;;;;;;;;;4976341;28;20066;-63
2022/01/05 13:06:42;;;;;;;5.03;2.53;;;;;;;;;;4973319;28;20487;-63
2022/01/05 13:09:10;;;;;;;2.83;1.30;;;;;;;;;;4972058;28;20106;-63
2022/01/05 13:11:40;;;;;;;3.95;1.17;;;;;;;;;;4971414;28;20387;-63
2022/01/05 13:14:15;;;;;;;3.00;1.08;;;;;;;;;;4982972;28;20046;-63
2022/01/05 13:16:42;;;;;;;3.20;0.70;;;;;;;;;;4974959;28;20137;-63
2022/01/05 13:19:16;;;;;;;3.35;1.20;;;;;;;;;;4975302;28;20049;-63
2022/01/05 13:21:47;;;;;;;6.97;1.13;;;;;;;;;;4966783;28;20046;-63
2022/01/05 13:24:13;;;;;;;3.50;1.30;;;;;;;;;;4968351;28;20039;-63
2022/01/05 13:26:58;;;;;;;7.00;1.40;;;;;;;;;;4973352;28;20066;-63
2022/01/05 13:29:30;;;;;;;3.55;1.55;;;;;;;;;;4983116;28;20124;-63
2022/01/05 13:31:58;;;;;;;5.10;1.90;;;;;;;;;;4970547;28;20237;-62
2022/01/05 13:34:34;;;;;;;3.90;1.63;;;;;;;;;;4974115;28;20126;-63
2022/01/05 13:37:00;;;;;;;;;;;;;;;;;;4966791;28;20070;-63
2022/01/05 13:39:39;;;;;;;3.80;1.52;;;;;;;;;;4977498;28;20449;-62
2022/01/05 13:42:07;;;;;;;4.30;1.15;;;;;;;;;;4974308;28;20097;-63
2022/01/05 13:44:34;;;;;;;3.95;1.15;;;;;;;;;;4963261;28;20078;-63
2022/01/05 13:47:04;;;;;;;4.32;1.38;;;;;;;;;;4958960;28;20879;-63
2022/01/05 13:49:32;;;;;;;5.43;1.70;;;;;;;;;;4964782;28;20067;-62
2022/01/05 13:52:06;;;;;;;4.65;1.30;;;;;;;;;;4973754;28;20058;-63
2022/01/05 13:54:34;;;;;;;3.85;2.13;;;;;;;;;;4968217;28;20071;-63
2022/01/05 13:57:01;;;;;;;3.88;1.23;;;;;;;;;;4965443;28;20058;-63
2022/01/05 13:59:44;;;;;;;4.43;1.27;;;;;;;;;;4968722;28;20625;-63
2022/01/05 14:02:10;;;;;;;3.13;1.20;;;;;;;;;;4966022;28;20121;-63
2022/01/05 14:04:58;;;;;;;6.43;1.25;;;;;;;;;;4970244;28;20062;-62
2022/01/05 14:07:26;;;;;;;4.18;1.75;;;;;;;;;;4966891;28;20063;-63
2022/01/05 14:10:37;;;;;;;6.20;1.40;;;;;;;;;;4965232;28;20113;-64
2022/01/05 14:13:05;;;;;;;4.00;1.80;;;;;;;;;;4905727;29;20044;-63
2022/01/05 14:15:32;;;;;;;6.32;1.35;;;;;;;;;;4904424;29;20048;-64
2022/01/05 14:18:05;;;;;;;5.53;1.40;;;;;;;;;;4914731;29;20048;-63
2022/01/05 14:20:34;;;;;;;4.75;1.50;;;;;;;;;;4910675;29;20540;-63
2022/01/05 14:23:06;;;;;;;5.28;1.35;;;;;;;;;;4912007;29;20071;-63
2022/01/05 14:25:40;;;;;;;5.32;1.42;;;;;;;;;;4908084;29;20413;-63
2022/01/05 14:28:15;;;;;;;2.30;0.95;;;;;;;;;;4914961;29;20079;-63
2022/01/05 14:31:00;;;;;;;2.97;1.35;;;;;;;;;;4928953;28;20101;-64
2022/01/05 14:33:35;;;;;;;4.82;1.25;;;;;;;;;;4969593;28;20113;-64
2022/01/05 14:36:06;;;;;;;8.48;1.65;;;;;;;;;;4968961;28;20047;-63
2022/01/05 14:38:32;;;;;;;8.32;1.65;;;;;;;;;;4975371;28;20070;-63
2022/01/05 14:41:12;;;;;;;6.00;1.70;;;;;;;;;;4970320;28;20081;-64
2022/01/05 14:43:41;;;;;;;3.53;1.33;;;;;;;;;;4974526;28;20050;-63
2022/01/05 14:46:07;;;;;;;6.70;1.60;;;;;;;;;;4969277;28;20054;-63
2022/01/05 14:48:34;;;;;;;4.82;1.67;;;;;;;;;;4969339;28;20136;-63
2022/01/05 14:51:01;;;;;;;7.13;1.95;;;;;;;;;;4968565;28;20083;-63
2022/01/05 14:53:31;;;;;;;6.20;1.92;;;;;;;;;;4977944;28;20136;-63
2022/01/05 14:55:57;;;;;;;8.35;2.33;;;;;;;;;;4969372;28;20050;-64